sensor_id;sensor_type;location;lat;lon;timestamp;P1;durP1;ratioP1;P2;durP2;ratioP2
8421;SDS011;4248;48.196;10.924;2023-04-25T00:00:44;7.10;;;3.10;;
8421;SDS011;4248;48.196;10.924;2023-04-25T00:03:10;5.87;;;2.90;;
8421;SDS011;4248;48.196;10.924;2023-04-25T00:05:35;7.77;;;2.90;;
8421;SDS011;4248;48.196;10.924;2023-04-25T00:08:02;5.13;;;2.77;;
8421;SDS011;4248;48.196;10.924;2023-04-25T00:10:28;4.40;;;3.20;;
8421;SDS011;4248;48.196;10.924;2023-04-25T00:12:54;5.83;;;3.10;;
8421;SDS011;4248;48.196;10.924;2023-04-25T00:15:20;5.17;;;3.50;;
8421;SDS011;4248;48.196;10.924;2023-04-25T00:17:45;4.83;;;2.80;;
8421;SDS011;4248;48.196;10.924;2023-04-25T00:20:11;6.10;;;2.70;;
8421;SDS011;4248;48.196;10.924;2023-04-25T00:22:37;4.77;;;2.87;;
8421;SDS011;4248;48.196;10.924;2023-04-25T00:25:06;9.00;;;3.37;;
8421;SDS011;4248;48.196;10.924;2023-04-25T00:27:32;7.23;;;2.73;;
8421;SDS011;4248;48.196;10.924;2023-04-25T00:29:57;6.67;;;2.93;;
8421;SDS011;4248;48.196;10.924;2023-04-25T00:32:23;4.00;;;2.70;;
8421;SDS011;4248;48.196;10.924;2023-04-25T00:34:49;10.33;;;3.07;;
8421;SDS011;4248;48.196;10.924;2023-04-25T00:37:14;4.60;;;3.00;;
8421;SDS011;4248;48.196;10.924;2023-04-25T00:39:40;4.83;;;3.10;;
8421;SDS011;4248;48.196;10.924;2023-04-25T00:42:06;8.57;;;3.60;;
8421;SDS011;4248;48.196;10.924;2023-04-25T00:44:32;3.90;;;2.57;;
8421;SDS011;4248;48.196;10.924;2023-04-25T00:47:00;4.20;;;2.80;;
8421;SDS011;4248;48.196;10.924;2023-04-25T00:49:27;3.60;;;2.60;;
8421;SDS011;4248;48.196;10.924;2023-04-25T00:51:52;6.87;;;2.93;;
8421;SDS011;4248;48.196;10.924;2023-04-25T00:54:18;5.53;;;3.10;;
8421;SDS011;4248;48.196;10.924;2023-04-25T00:56:44;5.67;;;3.30;;
8421;SDS011;4248;48.196;10.924;2023-04-25T00:59:10;6.10;;;2.93;;
8421;SDS011;4248;48.196;10.924;2023-04-25T01:01:36;7.50;;;2.90;;
8421;SDS011;4248;48.196;10.924;2023-04-25T01:04:04;5.60;;;3.40;;
8421;SDS011;4248;48.196;10.924;2023-04-25T01:06:29;5.70;;;3.40;;
8421;SDS011;4248;48.196;10.924;2023-04-25T01:08:56;6.03;;;3.30;;
8421;SDS011;4248;48.196;10.924;2023-04-25T01:11:23;6.83;;;3.80;;
8421;SDS011;4248;48.196;10.924;2023-04-25T01:13:49;5.80;;;3.70;;
8421;SDS011;4248;48.196;10.924;2023-04-25T01:16:15;4.57;;;3.30;;
8421;SDS011;4248;48.196;10.924;2023-04-25T01:18:40;6.40;;;3.83;;
8421;SDS011;4248;48.196;10.924;2023-04-25T01:21:08;6.50;;;3.60;;
8421;SDS011;4248;48.196;10.924;2023-04-25T01:23:40;5.80;;;3.50;;
8421;SDS011;4248;48.196;10.924;2023-04-25T01:26:10;7.23;;;3.40;;
8421;SDS011;4248;48.196;10.924;2023-04-25T01:28:37;4.27;;;2.90;;
8421;SDS011;4248;48.196;10.924;2023-04-25T01:31:06;5.27;;;3.43;;
8421;SDS011;4248;48.196;10.924;2023-04-25T01:33:31;6.90;;;3.60;;
8421;SDS011;4248;48.196;10.924;2023-04-25T01:35:57;7.93;;;3.10;;
8421;SDS011;4248;48.196;10.924;2023-04-25T01:38:23;8.37;;;4.03;;
8421;SDS011;4248;48.196;10.924;2023-04-25T01:40:49;5.47;;;3.73;;
8421;SDS011;4248;48.196;10.924;2023-04-25T01:43:16;5.20;;;3.20;;
8421;SDS011;4248;48.196;10.924;2023-04-25T01:45:42;5.93;;;3.40;;
8421;SDS011;4248;48.196;10.924;2023-04-25T01:48:08;4.60;;;3.33;;
8421;SDS011;4248;48.196;10.924;2023-04-25T01:50:34;6.37;;;3.70;;
8421;SDS011;4248;48.196;10.924;2023-04-25T01:53:00;5.33;;;3.47;;
8421;SDS011;4248;48.196;10.924;2023-04-25T01:55:27;5.60;;;3.20;;
8421;SDS011;4248;48.196;10.924;2023-04-25T01:57:53;4.67;;;3.23;;
8421;SDS011;4248;48.196;10.924;2023-04-25T02:00:18;6.80;;;3.30;;
8421;SDS011;4248;48.196;10.924;2023-04-25T02:02:44;6.50;;;3.17;;
8421;SDS011;4248;48.196;10.924;2023-04-25T02:05:09;6.27;;;3.00;;
8421;SDS011;4248;48.196;10.924;2023-04-25T02:07:35;4.10;;;2.83;;
8421;SDS011;4248;48.196;10.924;2023-04-25T02:10:01;7.20;;;3.37;;
8421;SDS011;4248;48.196;10.924;2023-04-25T02:12:27;5.90;;;3.60;;
8421;SDS011;4248;48.196;10.924;2023-04-25T02:14:53;5.27;;;3.07;;
8421;SDS011;4248;48.196;10.924;2023-04-25T02:17:19;4.80;;;3.23;;
8421;SDS011;4248;48.196;10.924;2023-04-25T02:19:46;5.37;;;3.50;;
8421;SDS011;4248;48.196;10.924;2023-04-25T02:22:11;9.37;;;3.80;;
8421;SDS011;4248;48.196;10.924;2023-04-25T02:24:37;7.53;;;3.67;;
8421;SDS011;4248;48.196;10.924;2023-04-25T02:27:03;10.13;;;2.80;;
8421;SDS011;4248;48.196;10.924;2023-04-25T02:29:29;4.43;;;2.60;;
8421;SDS011;4248;48.196;10.924;2023-04-25T02:31:55;5.30;;;2.47;;
8421;SDS011;4248;48.196;10.924;2023-04-25T02:34:21;4.33;;;2.60;;
8421;SDS011;4248;48.196;10.924;2023-04-25T02:36:47;7.60;;;2.70;;
8421;SDS011;4248;48.196;10.924;2023-04-25T02:39:15;4.53;;;2.20;;
8421;SDS011;4248;48.196;10.924;2023-04-25T02:41:41;7.00;;;2.30;;
8421;SDS011;4248;48.196;10.924;2023-04-25T02:44:07;3.90;;;1.80;;
8421;SDS011;4248;48.196;10.924;2023-04-25T02:46:32;7.60;;;2.40;;
8421;SDS011;4248;48.196;10.924;2023-04-25T02:48:58;5.90;;;2.53;;
8421;SDS011;4248;48.196;10.924;2023-04-25T02:51:23;7.47;;;2.30;;
8421;SDS011;4248;48.196;10.924;2023-04-25T02:53:49;4.00;;;2.30;;
8421;SDS011;4248;48.196;10.924;2023-04-25T02:56:15;6.07;;;2.10;;
8421;SDS011;4248;48.196;10.924;2023-04-25T02:58:40;6.27;;;2.60;;
8421;SDS011;4248;48.196;10.924;2023-04-25T03:01:06;4.10;;;2.10;;
8421;SDS011;4248;48.196;10.924;2023-04-25T03:03:32;3.53;;;1.97;;
8421;SDS011;4248;48.196;10.924;2023-04-25T03:05:57;5.53;;;2.00;;
8421;SDS011;4248;48.196;10.924;2023-04-25T03:08:23;4.67;;;2.43;;
8421;SDS011;4248;48.196;10.924;2023-04-25T03:10:50;4.03;;;1.97;;
8421;SDS011;4248;48.196;10.924;2023-04-25T03:13:17;4.10;;;2.00;;
8421;SDS011;4248;48.196;10.924;2023-04-25T03:15:43;4.40;;;1.97;;
8421;SDS011;4248;48.196;10.924;2023-04-25T03:18:08;6.20;;;2.40;;
8421;SDS011;4248;48.196;10.924;2023-04-25T03:20:34;6.63;;;1.90;;
8421;SDS011;4248;48.196;10.924;2023-04-25T03:23:00;2.70;;;1.80;;
8421;SDS011;4248;48.196;10.924;2023-04-25T03:25:25;4.93;;;1.50;;
8421;SDS011;4248;48.196;10.924;2023-04-25T03:27:51;6.13;;;2.10;;
8421;SDS011;4248;48.196;10.924;2023-04-25T03:30:16;2.07;;;1.37;;
8421;SDS011;4248;48.196;10.924;2023-04-25T03:32:42;4.83;;;1.93;;
8421;SDS011;4248;48.196;10.924;2023-04-25T03:35:08;6.73;;;2.40;;
8421;SDS011;4248;48.196;10.924;2023-04-25T03:37:33;2.73;;;1.87;;
8421;SDS011;4248;48.196;10.924;2023-04-25T03:39:59;4.03;;;1.90;;
8421;SDS011;4248;48.196;10.924;2023-04-25T03:42:25;4.77;;;1.73;;
8421;SDS011;4248;48.196;10.924;2023-04-25T03:44:51;4.80;;;1.97;;
8421;SDS011;4248;48.196;10.924;2023-04-25T03:47:16;4.17;;;2.10;;
8421;SDS011;4248;48.196;10.924;2023-04-25T03:49:42;3.73;;;1.73;;
8421;SDS011;4248;48.196;10.924;2023-04-25T03:52:08;6.30;;;2.33;;
8421;SDS011;4248;48.196;10.924;2023-04-25T03:54:33;12.50;;;2.90;;
8421;SDS011;4248;48.196;10.924;2023-04-25T03:56:59;5.67;;;2.40;;
8421;SDS011;4248;48.196;10.924;2023-04-25T03:59:25;4.83;;;2.23;;
8421;SDS011;4248;48.196;10.924;2023-04-25T04:01:51;6.23;;;2.30;;
8421;SDS011;4248;48.196;10.924;2023-04-25T04:04:17;3.70;;;2.00;;
8421;SDS011;4248;48.196;10.924;2023-04-25T04:06:42;4.30;;;2.03;;
8421;SDS011;4248;48.196;10.924;2023-04-25T04:09:08;5.77;;;2.63;;
8421;SDS011;4248;48.196;10.924;2023-04-25T04:11:36;6.97;;;2.10;;
8421;SDS011;4248;48.196;10.924;2023-04-25T04:14:03;8.97;;;2.63;;
8421;SDS011;4248;48.196;10.924;2023-04-25T04:16:30;5.10;;;2.40;;
8421;SDS011;4248;48.196;10.924;2023-04-25T04:18:56;5.10;;;2.60;;
8421;SDS011;4248;48.196;10.924;2023-04-25T04:21:21;3.43;;;2.27;;
8421;SDS011;4248;48.196;10.924;2023-04-25T04:23:47;4.87;;;2.47;;
8421;SDS011;4248;48.196;10.924;2023-04-25T04:26:13;5.90;;;2.50;;
8421;SDS011;4248;48.196;10.924;2023-04-25T04:28:41;4.93;;;2.50;;
8421;SDS011;4248;48.196;10.924;2023-04-25T04:31:07;4.20;;;2.50;;
8421;SDS011;4248;48.196;10.924;2023-04-25T04:33:34;4.90;;;2.33;;
8421;SDS011;4248;48.196;10.924;2023-04-25T04:36:00;11.33;;;3.13;;
8421;SDS011;4248;48.196;10.924;2023-04-25T04:38:27;5.03;;;2.83;;
8421;SDS011;4248;48.196;10.924;2023-04-25T04:40:54;6.63;;;2.80;;
8421;SDS011;4248;48.196;10.924;2023-04-25T04:43:19;4.37;;;2.60;;
8421;SDS011;4248;48.196;10.924;2023-04-25T04:45:45;5.73;;;3.17;;
8421;SDS011;4248;48.196;10.924;2023-04-25T04:48:11;5.70;;;2.90;;
8421;SDS011;4248;48.196;10.924;2023-04-25T04:50:39;3.60;;;2.23;;
8421;SDS011;4248;48.196;10.924;2023-04-25T04:53:05;8.70;;;3.23;;
8421;SDS011;4248;48.196;10.924;2023-04-25T04:55:31;5.50;;;3.03;;
8421;SDS011;4248;48.196;10.924;2023-04-25T04:57:56;6.03;;;3.03;;
8421;SDS011;4248;48.196;10.924;2023-04-25T05:00:22;8.23;;;3.37;;
8421;SDS011;4248;48.196;10.924;2023-04-25T05:02:47;6.40;;;3.30;;
8421;SDS011;4248;48.196;10.924;2023-04-25T05:05:13;5.17;;;3.00;;
8421;SDS011;4248;48.196;10.924;2023-04-25T05:07:39;8.03;;;3.53;;
8421;SDS011;4248;48.196;10.924;2023-04-25T05:10:04;6.33;;;3.20;;
8421;SDS011;4248;48.196;10.924;2023-04-25T05:12:31;6.53;;;3.20;;
8421;SDS011;4248;48.196;10.924;2023-04-25T05:14:56;6.47;;;3.50;;
8421;SDS011;4248;48.196;10.924;2023-04-25T05:17:22;5.00;;;3.33;;
8421;SDS011;4248;48.196;10.924;2023-04-25T05:19:47;6.90;;;2.93;;
8421;SDS011;4248;48.196;10.924;2023-04-25T05:22:13;4.17;;;2.97;;
8421;SDS011;4248;48.196;10.924;2023-04-25T05:24:39;4.67;;;2.90;;
8421;SDS011;4248;48.196;10.924;2023-04-25T05:27:04;5.93;;;2.80;;
8421;SDS011;4248;48.196;10.924;2023-04-25T05:29:30;4.20;;;3.00;;
8421;SDS011;4248;48.196;10.924;2023-04-25T05:31:56;4.73;;;2.90;;
8421;SDS011;4248;48.196;10.924;2023-04-25T05:34:21;6.97;;;3.10;;
8421;SDS011;4248;48.196;10.924;2023-04-25T05:36:47;6.73;;;3.70;;
8421;SDS011;4248;48.196;10.924;2023-04-25T05:39:14;5.43;;;3.43;;
8421;SDS011;4248;48.196;10.924;2023-04-25T05:41:41;7.27;;;3.53;;
8421;SDS011;4248;48.196;10.924;2023-04-25T05:44:07;9.87;;;3.20;;
8421;SDS011;4248;48.196;10.924;2023-04-25T05:46:32;6.83;;;3.37;;
8421;SDS011;4248;48.196;10.924;2023-04-25T05:48:58;8.60;;;3.30;;
8421;SDS011;4248;48.196;10.924;2023-04-25T05:51:24;7.57;;;3.00;;
8421;SDS011;4248;48.196;10.924;2023-04-25T05:53:49;8.40;;;3.13;;
8421;SDS011;4248;48.196;10.924;2023-04-25T05:56:15;6.07;;;3.40;;
8421;SDS011;4248;48.196;10.924;2023-04-25T05:58:40;13.30;;;3.27;;
8421;SDS011;4248;48.196;10.924;2023-04-25T06:01:06;7.57;;;3.00;;
8421;SDS011;4248;48.196;10.924;2023-04-25T06:03:32;5.70;;;2.50;;
8421;SDS011;4248;48.196;10.924;2023-04-25T06:05:57;6.90;;;2.43;;
8421;SDS011;4248;48.196;10.924;2023-04-25T06:08:23;4.97;;;3.30;;
8421;SDS011;4248;48.196;10.924;2023-04-25T06:10:48;5.53;;;2.63;;
8421;SDS011;4248;48.196;10.924;2023-04-25T06:13:14;7.23;;;3.63;;
8421;SDS011;4248;48.196;10.924;2023-04-25T06:15:40;5.10;;;2.80;;
8421;SDS011;4248;48.196;10.924;2023-04-25T06:18:06;4.40;;;2.03;;
8421;SDS011;4248;48.196;10.924;2023-04-25T06:20:32;4.20;;;2.20;;
8421;SDS011;4248;48.196;10.924;2023-04-25T06:22:57;5.10;;;2.40;;
8421;SDS011;4248;48.196;10.924;2023-04-25T06:25:23;6.00;;;2.63;;
8421;SDS011;4248;48.196;10.924;2023-04-25T06:27:49;3.97;;;2.47;;
8421;SDS011;4248;48.196;10.924;2023-04-25T06:30:14;4.00;;;2.20;;
8421;SDS011;4248;48.196;10.924;2023-04-25T06:32:41;5.33;;;3.00;;
8421;SDS011;4248;48.196;10.924;2023-04-25T06:35:07;4.90;;;3.30;;
8421;SDS011;4248;48.196;10.924;2023-04-25T06:37:32;12.10;;;2.87;;
8421;SDS011;4248;48.196;10.924;2023-04-25T06:39:58;3.07;;;1.70;;
8421;SDS011;4248;48.196;10.924;2023-04-25T06:42:24;3.93;;;2.07;;
8421;SDS011;4248;48.196;10.924;2023-04-25T06:44:49;4.03;;;1.90;;
8421;SDS011;4248;48.196;10.924;2023-04-25T06:47:15;5.57;;;2.10;;
8421;SDS011;4248;48.196;10.924;2023-04-25T06:49:41;7.87;;;2.40;;
8421;SDS011;4248;48.196;10.924;2023-04-25T06:52:07;4.20;;;2.20;;
8421;SDS011;4248;48.196;10.924;2023-04-25T06:54:33;4.10;;;1.93;;
8421;SDS011;4248;48.196;10.924;2023-04-25T06:56:59;3.33;;;2.20;;
8421;SDS011;4248;48.196;10.924;2023-04-25T06:59:26;6.60;;;2.50;;
8421;SDS011;4248;48.196;10.924;2023-04-25T07:01:51;4.80;;;1.80;;
8421;SDS011;4248;48.196;10.924;2023-04-25T07:04:17;3.37;;;1.90;;
8421;SDS011;4248;48.196;10.924;2023-04-25T07:06:42;4.03;;;2.30;;
8421;SDS011;4248;48.196;10.924;2023-04-25T07:09:08;3.47;;;1.80;;
8421;SDS011;4248;48.196;10.924;2023-04-25T07:11:37;4.93;;;2.40;;
8421;SDS011;4248;48.196;10.924;2023-04-25T07:14:03;6.03;;;2.00;;
8421;SDS011;4248;48.196;10.924;2023-04-25T07:16:28;2.70;;;1.90;;
8421;SDS011;4248;48.196;10.924;2023-04-25T07:18:54;4.97;;;2.10;;
8421;SDS011;4248;48.196;10.924;2023-04-25T07:21:20;6.20;;;2.30;;
8421;SDS011;4248;48.196;10.924;2023-04-25T07:23:46;5.10;;;1.80;;
8421;SDS011;4248;48.196;10.924;2023-04-25T07:26:11;5.80;;;1.90;;
8421;SDS011;4248;48.196;10.924;2023-04-25T07:28:37;4.40;;;2.10;;
8421;SDS011;4248;48.196;10.924;2023-04-25T07:31:03;4.47;;;2.10;;
8421;SDS011;4248;48.196;10.924;2023-04-25T07:33:28;4.13;;;1.93;;
8421;SDS011;4248;48.196;10.924;2023-04-25T07:35:54;6.50;;;2.93;;
8421;SDS011;4248;48.196;10.924;2023-04-25T07:38:20;7.37;;;2.70;;
8421;SDS011;4248;48.196;10.924;2023-04-25T07:40:49;3.90;;;2.00;;
8421;SDS011;4248;48.196;10.924;2023-04-25T07:43:15;4.10;;;2.40;;
8421;SDS011;4248;48.196;10.924;2023-04-25T07:45:45;4.13;;;2.07;;
8421;SDS011;4248;48.196;10.924;2023-04-25T07:48:11;4.73;;;2.10;;
8421;SDS011;4248;48.196;10.924;2023-04-25T07:50:41;4.97;;;2.23;;
8421;SDS011;4248;48.196;10.924;2023-04-25T07:53:07;5.57;;;1.83;;
8421;SDS011;4248;48.196;10.924;2023-04-25T07:55:33;4.83;;;2.83;;
8421;SDS011;4248;48.196;10.924;2023-04-25T07:57:59;5.30;;;2.10;;
8421;SDS011;4248;48.196;10.924;2023-04-25T08:00:24;6.93;;;2.10;;
8421;SDS011;4248;48.196;10.924;2023-04-25T08:02:50;4.73;;;3.20;;
8421;SDS011;4248;48.196;10.924;2023-04-25T08:05:16;4.83;;;1.93;;
8421;SDS011;4248;48.196;10.924;2023-04-25T08:07:42;5.60;;;1.90;;
8421;SDS011;4248;48.196;10.924;2023-04-25T08:10:08;7.03;;;2.67;;
8421;SDS011;4248;48.196;10.924;2023-04-25T08:12:34;4.10;;;2.07;;
8421;SDS011;4248;48.196;10.924;2023-04-25T08:14:59;5.13;;;2.00;;
8421;SDS011;4248;48.196;10.924;2023-04-25T08:17:25;4.90;;;2.30;;
8421;SDS011;4248;48.196;10.924;2023-04-25T08:19:51;3.20;;;2.20;;
8421;SDS011;4248;48.196;10.924;2023-04-25T08:22:16;5.07;;;2.10;;
8421;SDS011;4248;48.196;10.924;2023-04-25T08:24:42;3.70;;;2.37;;
8421;SDS011;4248;48.196;10.924;2023-04-25T08:27:08;4.90;;;2.30;;
8421;SDS011;4248;48.196;10.924;2023-04-25T08:29:34;4.00;;;1.70;;
8421;SDS011;4248;48.196;10.924;2023-04-25T08:32:00;5.27;;;2.10;;
8421;SDS011;4248;48.196;10.924;2023-04-25T08:34:25;3.90;;;1.87;;
8421;SDS011;4248;48.196;10.924;2023-04-25T08:36:51;5.57;;;2.03;;
8421;SDS011;4248;48.196;10.924;2023-04-25T08:39:17;10.53;;;2.00;;
8421;SDS011;4248;48.196;10.924;2023-04-25T08:41:43;4.57;;;2.10;;
8421;SDS011;4248;48.196;10.924;2023-04-25T08:44:12;4.83;;;2.00;;
8421;SDS011;4248;48.196;10.924;2023-04-25T08:46:40;4.23;;;1.73;;
8421;SDS011;4248;48.196;10.924;2023-04-25T08:49:06;4.20;;;1.83;;
8421;SDS011;4248;48.196;10.924;2023-04-25T08:51:34;4.00;;;1.73;;
8421;SDS011;4248;48.196;10.924;2023-04-25T08:54:10;6.17;;;1.73;;
8421;SDS011;4248;48.196;10.924;2023-04-25T08:56:41;4.50;;;1.80;;
8421;SDS011;4248;48.196;10.924;2023-04-25T08:59:09;4.00;;;2.10;;
8421;SDS011;4248;48.196;10.924;2023-04-25T09:01:36;3.37;;;1.83;;
8421;SDS011;4248;48.196;10.924;2023-04-25T09:04:02;5.57;;;1.90;;
8421;SDS011;4248;48.196;10.924;2023-04-25T09:06:31;4.07;;;1.70;;
8421;SDS011;4248;48.196;10.924;2023-04-25T09:09:02;3.93;;;1.70;;
8421;SDS011;4248;48.196;10.924;2023-04-25T09:11:32;2.77;;;1.43;;
8421;SDS011;4248;48.196;10.924;2023-04-25T09:14:11;5.03;;;1.70;;
8421;SDS011;4248;48.196;10.924;2023-04-25T09:21:55;6.87;;;2.20;;
8421;SDS011;4248;48.196;10.924;2023-04-25T09:26:57;6.73;;;2.20;;
8421;SDS011;4248;48.196;10.924;2023-04-25T09:29:29;4.63;;;2.07;;
8421;SDS011;4248;48.196;10.924;2023-04-25T09:34:40;4.33;;;2.33;;
8421;SDS011;4248;48.196;10.924;2023-04-25T09:37:08;4.43;;;1.80;;
8421;SDS011;4248;48.196;10.924;2023-04-25T09:39:35;5.50;;;2.13;;
8421;SDS011;4248;48.196;10.924;2023-04-25T09:42:03;8.97;;;2.00;;
8421;SDS011;4248;48.196;10.924;2023-04-25T09:44:29;6.00;;;2.10;;
8421;SDS011;4248;48.196;10.924;2023-04-25T09:46:55;7.23;;;1.80;;
8421;SDS011;4248;48.196;10.924;2023-04-25T09:49:20;5.03;;;1.53;;
8421;SDS011;4248;48.196;10.924;2023-04-25T09:51:59;7.80;;;1.73;;
8421;SDS011;4248;48.196;10.924;2023-04-25T09:54:25;2.20;;;1.23;;
8421;SDS011;4248;48.196;10.924;2023-04-25T09:56:51;3.00;;;1.63;;
8421;SDS011;4248;48.196;10.924;2023-04-25T09:59:21;3.17;;;1.30;;
8421;SDS011;4248;48.196;10.924;2023-04-25T10:01:48;3.47;;;1.40;;
8421;SDS011;4248;48.196;10.924;2023-04-25T10:04:17;2.90;;;1.07;;
8421;SDS011;4248;48.196;10.924;2023-04-25T10:06:45;2.13;;;1.10;;
8421;SDS011;4248;48.196;10.924;2023-04-25T10:09:14;2.77;;;1.10;;
8421;SDS011;4248;48.196;10.924;2023-04-25T10:11:40;4.00;;;1.10;;
8421;SDS011;4248;48.196;10.924;2023-04-25T10:14:06;3.30;;;1.23;;
8421;SDS011;4248;48.196;10.924;2023-04-25T10:16:32;2.43;;;1.30;;
8421;SDS011;4248;48.196;10.924;2023-04-25T10:18:58;2.83;;;1.30;;
8421;SDS011;4248;48.196;10.924;2023-04-25T10:21:24;2.07;;;1.10;;
8421;SDS011;4248;48.196;10.924;2023-04-25T10:23:53;2.80;;;1.10;;
8421;SDS011;4248;48.196;10.924;2023-04-25T10:26:19;3.80;;;1.13;;
8421;SDS011;4248;48.196;10.924;2023-04-25T10:29:03;2.80;;;1.10;;
8421;SDS011;4248;48.196;10.924;2023-04-25T10:31:29;3.30;;;1.33;;
8421;SDS011;4248;48.196;10.924;2023-04-25T10:33:56;2.90;;;1.10;;
8421;SDS011;4248;48.196;10.924;2023-04-25T10:36:22;3.10;;;1.47;;
8421;SDS011;4248;48.196;10.924;2023-04-25T10:38:52;2.80;;;1.50;;
8421;SDS011;4248;48.196;10.924;2023-04-25T10:41:18;2.90;;;1.57;;
8421;SDS011;4248;48.196;10.924;2023-04-25T10:43:45;3.67;;;1.50;;
8421;SDS011;4248;48.196;10.924;2023-04-25T10:46:19;3.83;;;1.70;;
8421;SDS011;4248;48.196;10.924;2023-04-25T10:48:51;2.67;;;1.23;;
8421;SDS011;4248;48.196;10.924;2023-04-25T10:51:19;4.57;;;1.73;;
8421;SDS011;4248;48.196;10.924;2023-04-25T10:53:58;9.50;;;4.23;;
8421;SDS011;4248;48.196;10.924;2023-04-25T10:56:37;3.40;;;1.90;;
8421;SDS011;4248;48.196;10.924;2023-04-25T10:59:14;4.37;;;1.73;;
8421;SDS011;4248;48.196;10.924;2023-04-25T11:01:48;5.33;;;1.87;;
8421;SDS011;4248;48.196;10.924;2023-04-25T11:09:48;3.10;;;1.43;;
8421;SDS011;4248;48.196;10.924;2023-04-25T11:12:14;4.90;;;1.63;;
8421;SDS011;4248;48.196;10.924;2023-04-25T11:14:41;3.93;;;1.90;;
8421;SDS011;4248;48.196;10.924;2023-04-25T11:17:06;3.50;;;1.40;;
8421;SDS011;4248;48.196;10.924;2023-04-25T11:19:32;3.27;;;1.60;;
8421;SDS011;4248;48.196;10.924;2023-04-25T11:21:59;2.97;;;1.67;;
8421;SDS011;4248;48.196;10.924;2023-04-25T11:24:29;3.67;;;1.67;;
8421;SDS011;4248;48.196;10.924;2023-04-25T11:26:56;3.07;;;1.33;;
8421;SDS011;4248;48.196;10.924;2023-04-25T11:29:26;3.53;;;1.20;;
8421;SDS011;4248;48.196;10.924;2023-04-25T11:31:52;5.40;;;1.80;;
8421;SDS011;4248;48.196;10.924;2023-04-25T11:34:18;2.70;;;1.13;;
8421;SDS011;4248;48.196;10.924;2023-04-25T11:36:44;2.77;;;1.10;;
8421;SDS011;4248;48.196;10.924;2023-04-25T11:39:11;1.70;;;1.00;;
8421;SDS011;4248;48.196;10.924;2023-04-25T11:41:37;1.90;;;1.00;;
8421;SDS011;4248;48.196;10.924;2023-04-25T11:44:03;1.73;;;1.00;;
8421;SDS011;4248;48.196;10.924;2023-04-25T11:46:29;2.70;;;0.87;;
8421;SDS011;4248;48.196;10.924;2023-04-25T11:48:55;3.43;;;0.70;;
8421;SDS011;4248;48.196;10.924;2023-04-25T11:51:21;1.87;;;1.00;;
8421;SDS011;4248;48.196;10.924;2023-04-25T11:53:46;2.50;;;0.90;;
8421;SDS011;4248;48.196;10.924;2023-04-25T11:56:12;4.20;;;1.30;;
8421;SDS011;4248;48.196;10.924;2023-04-25T11:58:54;2.20;;;0.93;;
8421;SDS011;4248;48.196;10.924;2023-04-25T12:01:27;1.73;;;0.80;;
8421;SDS011;4248;48.196;10.924;2023-04-25T12:03:55;2.53;;;0.83;;
8421;SDS011;4248;48.196;10.924;2023-04-25T12:06:21;1.70;;;1.00;;
8421;SDS011;4248;48.196;10.924;2023-04-25T12:09:01;2.77;;;1.30;;
8421;SDS011;4248;48.196;10.924;2023-04-25T12:11:29;2.10;;;1.33;;
8421;SDS011;4248;48.196;10.924;2023-04-25T12:14:01;2.10;;;1.13;;
8421;SDS011;4248;48.196;10.924;2023-04-25T12:16:29;3.17;;;1.23;;
8421;SDS011;4248;48.196;10.924;2023-04-25T12:18:55;2.23;;;1.10;;
8421;SDS011;4248;48.196;10.924;2023-04-25T12:21:22;2.90;;;1.10;;
8421;SDS011;4248;48.196;10.924;2023-04-25T12:23:47;1.70;;;0.80;;
8421;SDS011;4248;48.196;10.924;2023-04-25T12:26:13;1.80;;;0.90;;
8421;SDS011;4248;48.196;10.924;2023-04-25T12:28:39;2.57;;;1.10;;
8421;SDS011;4248;48.196;10.924;2023-04-25T12:31:05;1.60;;;1.00;;
8421;SDS011;4248;48.196;10.924;2023-04-25T12:33:32;2.73;;;1.10;;
8421;SDS011;4248;48.196;10.924;2023-04-25T12:35:59;1.83;;;1.00;;
8421;SDS011;4248;48.196;10.924;2023-04-25T12:38:29;2.00;;;1.20;;
8421;SDS011;4248;48.196;10.924;2023-04-25T12:40:57;2.17;;;1.30;;
8421;SDS011;4248;48.196;10.924;2023-04-25T12:43:23;1.87;;;1.00;;
8421;SDS011;4248;48.196;10.924;2023-04-25T12:45:52;1.60;;;0.90;;
8421;SDS011;4248;48.196;10.924;2023-04-25T12:48:19;1.53;;;0.87;;
8421;SDS011;4248;48.196;10.924;2023-04-25T12:50:45;1.73;;;1.00;;
8421;SDS011;4248;48.196;10.924;2023-04-25T12:53:15;1.70;;;1.00;;
8421;SDS011;4248;48.196;10.924;2023-04-25T12:55:41;2.70;;;1.20;;
8421;SDS011;4248;48.196;10.924;2023-04-25T12:58:07;1.80;;;0.93;;
8421;SDS011;4248;48.196;10.924;2023-04-25T13:00:32;1.70;;;0.90;;
8421;SDS011;4248;48.196;10.924;2023-04-25T13:02:58;2.00;;;0.93;;
8421;SDS011;4248;48.196;10.924;2023-04-25T13:05:24;4.93;;;1.40;;
8421;SDS011;4248;48.196;10.924;2023-04-25T13:07:50;1.70;;;0.87;;
8421;SDS011;4248;48.196;10.924;2023-04-25T13:10:16;1.63;;;0.90;;
8421;SDS011;4248;48.196;10.924;2023-04-25T13:12:42;1.87;;;0.90;;
8421;SDS011;4248;48.196;10.924;2023-04-25T13:15:08;1.77;;;1.07;;
8421;SDS011;4248;48.196;10.924;2023-04-25T13:17:36;1.70;;;0.80;;
8421;SDS011;4248;48.196;10.924;2023-04-25T13:20:03;3.27;;;0.97;;
8421;SDS011;4248;48.196;10.924;2023-04-25T13:22:33;2.10;;;1.03;;
8421;SDS011;4248;48.196;10.924;2023-04-25T13:25:02;1.90;;;0.93;;
8421;SDS011;4248;48.196;10.924;2023-04-25T13:27:28;1.90;;;1.00;;
8421;SDS011;4248;48.196;10.924;2023-04-25T13:29:53;2.03;;;1.00;;
8421;SDS011;4248;48.196;10.924;2023-04-25T13:32:19;1.80;;;1.00;;
8421;SDS011;4248;48.196;10.924;2023-04-25T13:34:45;2.13;;;0.97;;
8421;SDS011;4248;48.196;10.924;2023-04-25T13:37:10;2.17;;;0.90;;
8421;SDS011;4248;48.196;10.924;2023-04-25T13:39:36;1.70;;;0.80;;
8421;SDS011;4248;48.196;10.924;2023-04-25T13:42:02;1.90;;;0.90;;
8421;SDS011;4248;48.196;10.924;2023-04-25T13:44:28;1.80;;;1.00;;
8421;SDS011;4248;48.196;10.924;2023-04-25T13:46:53;3.00;;;1.03;;
8421;SDS011;4248;48.196;10.924;2023-04-25T13:49:19;2.20;;;1.10;;
8421;SDS011;4248;48.196;10.924;2023-04-25T13:51:45;1.97;;;1.00;;
8421;SDS011;4248;48.196;10.924;2023-04-25T13:54:10;2.30;;;0.80;;
8421;SDS011;4248;48.196;10.924;2023-04-25T13:56:36;1.50;;;0.80;;
8421;SDS011;4248;48.196;10.924;2023-04-25T13:59:02;2.50;;;1.00;;
8421;SDS011;4248;48.196;10.924;2023-04-25T14:01:27;1.63;;;0.90;;
8421;SDS011;4248;48.196;10.924;2023-04-25T14:03:55;2.43;;;1.00;;
8421;SDS011;4248;48.196;10.924;2023-04-25T14:06:20;1.83;;;0.87;;
8421;SDS011;4248;48.196;10.924;2023-04-25T14:08:49;1.70;;;0.87;;
8421;SDS011;4248;48.196;10.924;2023-04-25T14:11:15;2.60;;;0.77;;
8421;SDS011;4248;48.196;10.924;2023-04-25T14:13:42;2.70;;;1.10;;
8421;SDS011;4248;48.196;10.924;2023-04-25T14:16:09;1.60;;;1.00;;
8421;SDS011;4248;48.196;10.924;2023-04-25T14:18:34;1.43;;;0.80;;
8421;SDS011;4248;48.196;10.924;2023-04-25T14:21:00;1.53;;;0.80;;
8421;SDS011;4248;48.196;10.924;2023-04-25T14:23:26;1.60;;;1.00;;
8421;SDS011;4248;48.196;10.924;2023-04-25T14:25:52;1.43;;;0.80;;
8421;SDS011;4248;48.196;10.924;2023-04-25T14:28:17;2.03;;;1.07;;
8421;SDS011;4248;48.196;10.924;2023-04-25T14:30:43;2.10;;;1.10;;
8421;SDS011;4248;48.196;10.924;2023-04-25T14:33:08;2.47;;;1.17;;
8421;SDS011;4248;48.196;10.924;2023-04-25T14:35:34;1.57;;;0.90;;
8421;SDS011;4248;48.196;10.924;2023-04-25T14:38:00;2.60;;;1.30;;
8421;SDS011;4248;48.196;10.924;2023-04-25T14:40:26;1.60;;;1.07;;
8421;SDS011;4248;48.196;10.924;2023-04-25T14:42:51;1.80;;;1.10;;
8421;SDS011;4248;48.196;10.924;2023-04-25T14:45:17;1.70;;;0.90;;
8421;SDS011;4248;48.196;10.924;2023-04-25T14:47:43;1.50;;;1.00;;
8421;SDS011;4248;48.196;10.924;2023-04-25T14:50:09;1.60;;;0.83;;
8421;SDS011;4248;48.196;10.924;2023-04-25T14:52:35;1.53;;;0.83;;
8421;SDS011;4248;48.196;10.924;2023-04-25T14:55:01;1.60;;;0.90;;
8421;SDS011;4248;48.196;10.924;2023-04-25T14:57:30;1.40;;;0.90;;
8421;SDS011;4248;48.196;10.924;2023-04-25T14:59:56;1.70;;;1.00;;
8421;SDS011;4248;48.196;10.924;2023-04-25T15:02:23;1.90;;;1.13;;
8421;SDS011;4248;48.196;10.924;2023-04-25T15:04:49;2.27;;;1.20;;
8421;SDS011;4248;48.196;10.924;2023-04-25T15:07:15;1.80;;;0.80;;
8421;SDS011;4248;48.196;10.924;2023-04-25T15:09:40;2.30;;;1.30;;
8421;SDS011;4248;48.196;10.924;2023-04-25T15:12:06;1.80;;;1.20;;